Time;durP1;ratioP1;P1;durP2;ratioP2;P2;SDS_P1;SDS_P2;PMS_P1;PMS_P2;Temp;Humidity;BMP_temperature;BMP_pressure;BME280_temperature;BME280_humidity;BME280_pressure;Samples;Min_cycle;Max_cycle;Signal;HPM_P1;HPM_P2
2023/01/12 00:02:36;;;;;;;8.63;7.07;;;13.10;99.90;;;;;;10097961;29;20244;-90
2023/01/12 00:07:39;;;;;;;7.67;5.90;;;13.50;99.90;;;;;;10097542;29;20296;-90
2023/01/12 00:12:41;;;;;;;6.23;5.27;;;13.10;99.90;;;;;;10117053;29;20231;-89
2023/01/12 00:17:44;;;;;;;6.60;5.13;;;13.40;99.90;;;;;;10150007;29;20652;-89
2023/01/12 00:22:48;;;;;;;6.67;5.97;;;13.40;99.90;;;;;;10133856;29;20323;-89
2023/01/12 00:27:51;;;;;;;6.93;4.47;;;13.40;99.90;;;;;;10119375;29;20290;-89
2023/01/12 00:32:53;;;;;;;8.37;5.70;;;13.70;99.90;;;;;;10136786;29;20272;-89
2023/01/12 00:37:56;;;;;;;6.47;5.07;;;13.30;99.90;;;;;;10103007;29;20302;-90
2023/01/12 00:48:21;;;;;;;8.30;6.00;;;13.40;99.90;;;;;;10117704;29;20316;-89
2023/01/12 00:53:24;;;;;;;7.47;6.20;;;13.40;99.90;;;;;;10116662;29;20256;-88
2023/01/12 00:58:27;;;;;;;11.00;7.77;;;12.90;99.90;;;;;;10095577;29;20613;-88
2023/01/12 01:03:30;;;;;;;6.50;5.37;;;12.60;99.90;;;;;;10078972;29;20632;-88
2023/01/12 01:08:35;;;;;;;10.73;4.87;;;12.50;99.90;;;;;;10094674;29;20268;-89
2023/01/12 01:13:44;;;;;;;12.83;8.03;;;12.60;99.90;;;;;;10095651;29;20661;-88
2023/01/12 01:18:47;;;;;;;11.70;10.33;;;12.00;99.90;;;;;;10081356;29;20748;-88
2023/01/12 01:23:50;;;;;;;15.53;11.33;;;10.90;99.90;;;;;;10116727;29;20295;-88
2023/01/12 01:28:53;;;;;;;16.37;9.40;;;9.90;99.90;;;;;;10128345;29;20259;-88
2023/01/12 01:33:55;;;;;;;11.43;9.53;;;9.60;99.90;;;;;;10094285;29;20233;-88
2023/01/12 01:38:58;;;;;;;11.97;8.07;;;9.30;99.90;;;;;;10092960;29;20253;-88
2023/01/12 01:44:04;;;;;;;8.67;6.93;;;9.80;99.90;;;;;;10096863;29;20681;-88
2023/01/12 01:49:13;;;;;;;8.20;6.87;;;10.60;99.90;;;;;;10076904;29;20280;-89
2023/01/12 01:54:16;;;;;;;8.47;6.83;;;11.30;99.90;;;;;;10077063;29;20706;-88
2023/01/12 01:59:23;;;;;;;7.83;7.00;;;11.90;99.90;;;;;;10076985;29;20236;-88
2023/01/12 02:04:25;;;;;;;6.73;4.57;;;11.70;99.90;;;;;;10092646;29;20312;-88
2023/01/12 02:09:29;;;;;;;11.00;8.37;;;11.60;99.90;;;;;;10076564;29;20268;-88
2023/01/12 02:20:25;;;;;;;10.77;7.57;;;11.80;99.90;;;;;;10092619;29;20233;-88
2023/01/12 02:25:56;;;;;;;9.93;7.53;;;11.20;99.90;;;;;;10092316;29;20274;-88
2023/01/12 02:31:17;;;;;;;11.77;7.70;;;10.80;99.90;;;;;;10048301;29;20766;-88
2023/01/12 02:36:34;;;;;;;15.50;8.90;;;10.80;99.90;;;;;;10056869;29;20241;-88
2023/01/12 02:47:28;;;;;;;9.50;6.37;;;10.40;99.90;;;;;;10086178;29;20373;-88
2023/01/12 02:52:32;;;;;;;6.30;4.97;;;10.30;99.90;;;;;;10071126;29;20281;-88
2023/01/12 02:57:36;;;;;;;14.80;7.60;;;10.70;99.90;;;;;;10084600;29;20232;-88
2023/01/12 03:02:39;;;;;;;6.87;5.40;;;10.80;99.90;;;;;;10085426;29;20879;-88
2023/01/12 03:07:45;;;;;;;10.27;6.93;;;11.50;99.90;;;;;;10067153;29;20312;-88
2023/01/12 03:12:50;;;;;;;6.73;4.93;;;12.40;99.90;;;;;;10055986;29;20269;-88
2023/01/12 03:18:05;;;;;;;7.30;5.83;;;12.30;99.90;;;;;;10074742;29;20244;-88
2023/01/12 03:23:12;;;;;;;10.03;5.07;;;12.80;99.90;;;;;;10089526;29;20244;-88
2023/01/12 03:28:18;;;;;;;3.67;3.37;;;12.30;99.90;;;;;;10069609;29;20253;-88
2023/01/12 03:33:21;;;;;;;6.07;4.80;;;12.50;99.90;;;;;;10052300;29;20707;-88
2023/01/12 03:38:37;;;;;;;10.77;6.07;;;12.40;99.90;;;;;;10036211;29;20682;-88
2023/01/12 03:43:48;;;;;;;6.83;5.03;;;12.30;99.90;;;;;;10036568;29;20213;-88
2023/01/12 03:49:10;;;;;;;8.70;5.87;;;12.00;99.90;;;;;;10107159;29;21077;-88
2023/01/12 03:54:15;;;;;;;12.70;8.00;;;11.50;99.90;;;;;;10129537;29;20727;-88
2023/01/12 03:59:18;;;;;;;8.57;6.10;;;10.70;99.90;;;;;;10079029;29;20605;-88
2023/01/12 04:04:21;;;;;;;10.37;6.20;;;10.10;99.90;;;;;;10093090;29;20228;-88
2023/01/12 04:09:24;;;;;;;6.40;5.67;;;10.40;99.90;;;;;;10076891;29;20312;-88
2023/01/12 04:14:27;;;;;;;8.63;7.10;;;10.30;99.90;;;;;;10076179;29;20268;-88
2023/01/12 04:19:30;;;;;;;9.70;6.03;;;10.30;99.90;;;;;;10090554;29;20237;-88
2023/01/12 04:24:32;;;;;;;6.53;5.20;;;10.20;99.90;;;;;;10076552;29;20236;-88
2023/01/12 04:29:35;;;;;;;5.60;4.67;;;9.80;99.90;;;;;;10082137;29;20600;-88
2023/01/12 04:34:38;;;;;;;9.70;5.43;;;10.20;99.90;;;;;;10128024;29;20232;-88
2023/01/12 04:39:40;;;;;;;8.67;4.90;;;10.10;99.90;;;;;;10096943;29;20209;-87
2023/01/12 04:44:43;;;;;;;10.63;7.07;;;9.80;99.90;;;;;;10098755;29;20652;-88
2023/01/12 04:49:45;;;;;;;10.83;5.93;;;10.00;99.90;;;;;;10109082;29;20260;-88
2023/01/12 04:54:48;;;;;;;8.70;4.40;;;9.90;99.90;;;;;;10134270;29;20295;-88
2023/01/12 04:59:50;;;;;;;5.33;4.83;;;10.00;99.90;;;;;;10086331;29;20634;-88
2023/01/12 05:04:53;;;;;;;9.07;5.23;;;9.60;99.90;;;;;;10078962;29;20249;-88
2023/01/12 05:15:17;;;;;;;8.73;5.17;;;9.10;99.90;;;;;;10131633;29;20278;-87
2023/01/12 05:20:20;;;;;;;11.70;5.37;;;8.50;99.90;;;;;;10082744;29;20765;-88
2023/01/12 05:25:23;;;;;;;9.10;6.60;;;8.30;99.90;;;;;;10098200;29;20738;-87
2023/01/12 05:30:28;;;;;;;14.23;7.57;;;8.40;99.90;;;;;;10105502;29;20248;-88
2023/01/12 05:35:33;;;;;;;10.23;6.10;;;7.50;99.90;;;;;;10095807;29;20229;-87
2023/01/12 05:40:36;;;;;;;10.57;8.03;;;7.00;99.90;;;;;;10124765;29;20658;-87
2023/01/12 05:45:39;;;;;;;16.70;10.87;;;8.20;99.90;;;;;;10094203;29;20264;-88
2023/01/12 05:50:41;;;;;;;17.53;9.27;;;7.50;99.90;;;;;;10076943;29;20804;-88
2023/01/12 05:55:44;;;;;;;13.77;7.73;;;6.90;99.90;;;;;;10093682;29;20297;-88
2023/01/12 06:00:46;;;;;;;12.37;8.07;;;6.50;99.90;;;;;;10094691;29;20209;-88
2023/01/12 06:05:53;;;;;;;12.37;5.87;;;6.70;99.90;;;;;;10095549;29;20595;-88
2023/01/12 06:11:00;;;;;;;20.47;9.67;;;7.10;99.90;;;;;;10125265;29;20260;-88
2023/01/12 06:16:05;;;;;;;21.30;9.13;;;7.00;99.90;;;;;;10076744;29;20244;-88
2023/01/12 06:21:08;;;;;;;18.30;8.57;;;6.80;99.90;;;;;;10092965;29;20293;-87
2023/01/12 06:26:11;;;;;;;16.00;8.80;;;6.50;99.90;;;;;;10077065;29;20761;-88
2023/01/12 06:31:14;;;;;;;11.50;6.87;;;6.70;99.90;;;;;;10076162;29;20696;-88
2023/01/12 06:36:17;;;;;;;11.77;6.97;;;6.70;99.90;;;;;;10118114;29;20291;-88
2023/01/12 06:46:41;;;;;;;15.77;9.40;;;7.20;99.90;;;;;;10106171;29;20262;-87
2023/01/12 06:51:45;;;;;;;14.53;9.17;;;7.50;99.90;;;;;;10093697;29;20703;-90
2023/01/12 06:56:48;;;;;;;13.80;7.50;;;8.80;99.90;;;;;;10092065;29;20265;-91
2023/01/12 07:01:50;;;;;;;13.97;8.20;;;8.30;99.90;;;;;;10075275;29;20255;-91
2023/01/12 07:06:54;;;;;;;16.70;8.80;;;8.40;99.90;;;;;;10077965;29;20219;-87
2023/01/12 07:11:56;;;;;;;25.33;9.37;;;8.00;99.90;;;;;;10113416;29;20280;-79
2023/01/12 07:16:59;;;;;;;23.57;9.03;;;9.20;99.90;;;;;;10091348;29;20296;-78
2023/01/12 07:22:01;;;;;;;19.67;9.63;;;9.30;99.90;;;;;;10095575;29;20319;-78
2023/01/12 07:27:04;;;;;;;26.97;7.90;;;9.50;99.90;;;;;;10129581;29;20239;-78
2023/01/12 07:32:07;;;;;;;22.90;8.03;;;9.70;99.90;;;;;;10129051;29;20259;-79
2023/01/12 07:37:09;;;;;;;16.33;7.67;;;9.20;99.90;;;;;;10138554;29;20223;-78
2023/01/12 07:42:22;;;;;;;11.77;6.53;;;9.00;99.90;;;;;;10163514;29;20235;-78
2023/01/12 07:47:26;;;;;;;10.37;5.77;;;8.80;99.90;;;;;;10125556;29;20311;-79
2023/01/12 07:52:29;;;;;;;11.13;6.33;;;8.60;99.90;;;;;;10125802;29;20733;-79
2023/01/12 07:57:32;;;;;;;16.83;6.70;;;9.40;99.90;;;;;;10119907;29;20653;-79
2023/01/12 08:02:35;;;;;;;18.03;6.17;;;9.40;99.90;;;;;;10134681;29;21132;-81
2023/01/12 08:07:38;;;;;;;13.73;6.73;;;9.80;99.90;;;;;;10165638;29;20247;-78
2023/01/12 08:12:41;;;;;;;14.73;7.07;;;9.70;99.90;;;;;;10098256;29;20307;-79
2023/01/12 08:18:07;;;;;;;17.40;8.43;;;10.20;99.90;;;;;;10085534;29;20249;-79
2023/01/12 08:23:20;;;;;;;12.57;7.10;;;10.30;99.90;;;;;;10132186;29;20267;-79
2023/01/12 08:28:39;;;;;;;10.37;5.57;;;10.30;99.90;;;;;;10169689;29;20286;-79
2023/01/12 08:33:42;;;;;;;13.60;7.00;;;11.10;99.90;;;;;;10175241;29;20338;-79
2023/01/12 08:38:45;;;;;;;10.37;5.83;;;10.90;99.90;;;;;;10148401;29;20201;-79
2023/01/12 08:44:02;;;;;;;8.83;5.70;;;10.80;99.90;;;;;;10080600;29;20268;-78
2023/01/12 08:49:10;;;;;;;11.10;5.50;;;10.80;99.90;;;;;;10104927;29;20338;-79
2023/01/12 08:54:15;;;;;;;10.73;5.50;;;11.10;99.90;;;;;;10118079;29;20271;-79
2023/01/12 08:59:18;;;;;;;8.53;4.20;;;11.50;99.90;;;;;;10086078;29;20233;-79
2023/01/12 09:04:20;;;;;;;11.83;5.50;;;11.10;99.90;;;;;;10081551;29;20249;-80
2023/01/12 09:09:23;;;;;;;11.33;6.93;;;10.50;99.90;;;;;;10113878;29;20291;-79
2023/01/12 09:14:25;;;;;;;10.30;5.13;;;9.20;99.90;;;;;;10134849;29;20883;-78
2023/01/12 09:19:28;;;;;;;7.23;4.57;;;;;;;;;;10153545;29;20201;-77
2023/01/12 09:24:31;;;;;;;7.17;4.17;;;8.30;99.90;;;;;;10140674;29;20282;-79
2023/01/12 09:29:33;;;;;;;11.93;5.97;;;8.20;99.90;;;;;;10148301;29;20258;-78
2023/01/12 09:34:36;;;;;;;11.73;5.93;;;8.10;99.90;;;;;;10123168;29;20531;-78
2023/01/12 09:39:39;;;;;;;12.37;4.90;;;8.00;99.90;;;;;;10138089;29;20218;-78
2023/01/12 09:50:18;;;;;;;10.80;5.00;;;8.30;99.90;;;;;;10197495;29;20690;-78
2023/01/12 09:55:23;;;;;;;7.87;3.27;;;9.00;99.90;;;;;;10190558;29;20687;-82
2023/01/12 10:00:27;;;;;;;5.97;2.53;;;11.00;99.90;;;;;;10135593;29;20233;-78
2023/01/12 10:05:38;;;;;;;7.80;4.13;;;;;;;;;;10165715;29;20212;-79
2023/01/12 10:10:55;;;;;;;5.90;2.70;;;13.20;99.90;;;;;;10206795;29;20232;-79
2023/01/12 10:16:04;;;;;;;7.53;3.73;;;13.30;99.90;;;;;;10198958;29;20579;-77
2023/01/12 10:21:10;;;;;;;4.93;3.30;;;13.40;99.90;;;;;;10181007;29;20285;-78
2023/01/12 10:26:23;;;;;;;7.20;3.77;;;12.80;99.90;;;;;;10155805;29;20257;-79
2023/01/12 10:31:25;;;;;;;10.33;3.80;;;12.60;99.90;;;;;;10130644;29;20229;-78
2023/01/12 10:36:29;;;;;;;5.93;3.00;;;12.00;99.90;;;;;;10123008;29;20242;-79
2023/01/12 10:41:38;;;;;;;12.60;5.37;;;10.50;99.90;;;;;;10150945;29;20248;-79
2023/01/12 10:46:41;;;;;;;7.93;3.60;;;11.70;99.90;;;;;;10156961;29;20637;-79
2023/01/12 10:51:53;;;;;;;6.60;3.57;;;12.60;99.90;;;;;;10127236;29;20228;-80
2023/01/12 10:56:59;;;;;;;4.67;2.87;;;12.30;99.90;;;;;;10156304;29;20272;-78
2023/01/12 11:02:04;;;;;;;4.93;2.10;;;13.00;99.90;;;;;;10150322;29;20220;-79
2023/01/12 11:07:27;;;;;;;7.33;3.20;;;13.40;99.90;;;;;;10142706;29;20237;-78
2023/01/12 11:12:35;;;;;;;10.27;3.30;;;12.70;99.90;;;;;;10104727;29;20654;-79
2023/01/12 11:17:38;;;;;;;10.23;3.87;;;12.50;99.90;;;;;;10120211;29;20213;-80
2023/01/12 11:22:44;;;;;;;6.73;3.10;;;12.90;99.90;;;;;;10127278;29;20244;-79
2023/01/12 11:27:57;;;;;;;7.40;3.40;;;12.70;99.90;;;;;;10122242;29;20646;-80
2023/01/12 11:33:36;;;;;;;7.90;3.43;;;12.30;99.90;;;;;;10119377;29;20335;-79
2023/01/12 11:38:43;;;;;;;11.77;3.57;;;12.30;99.90;;;;;;10106435;29;20205;-79
2023/01/12 11:43:57;;;;;;;5.80;3.43;;;12.10;99.90;;;;;;10102676;29;20329;-79
2023/01/12 11:49:27;;;;;;;9.80;4.83;;;12.30;99.90;;;;;;10104449;29;20236;-79
2023/01/12 11:54:31;;;;;;;5.80;3.50;;;12.00;99.90;;;;;;10111559;29;20718;-79
2023/01/12 11:59:51;;;;;;;6.70;3.13;;;11.60;99.90;;;;;;10116652;29;20679;-80
2023/01/12 12:05:39;;;;;;;8.93;4.80;;;11.60;99.90;;;;;;10109874;29;20268;-79
2023/01/12 12:10:52;;;;;;;13.27;4.50;;;11.50;99.90;;;;;;10108412;29;20256;-79
2023/01/12 12:16:16;;;;;;;9.03;3.70;;;11.60;99.90;;;;;;10130274;29;20647;-79
2023/01/12 12:21:37;;;;;;;7.57;3.80;;;11.50;99.90;;;;;;10142512;29;20631;-79
2023/01/12 12:26:50;;;;;;;8.53;2.87;;;11.10;99.90;;;;;;10118051;29;20682;-79
2023/01/12 12:31:58;;;;;;;8.07;3.63;;;10.60;99.90;;;;;;10093948;29;20316;-79
2023/01/12 12:37:18;;;;;;;7.47;2.90;;;10.60;99.90;;;;;;10126924;29;20251;-79
2023/01/12 12:48:20;;;;;;;9.10;3.30;;;10.80;99.90;;;;;;10130087;29;20664;-78
2023/01/12 12:53:27;;;;;;;8.70;3.47;;;10.80;99.90;;;;;;10162484;29;20411;-80
2023/01/12 12:58:53;;;;;;;8.23;3.77;;;10.40;99.90;;;;;;10152776;29;20232;-80
2023/01/12 13:04:01;;;;;;;9.80;3.73;;;10.10;99.90;;;;;;10175942;29;20295;-78
2023/01/12 13:09:10;;;;;;;10.37;3.27;;;9.90;99.90;;;;;;10098742;29;20299;-78
2023/01/12 13:14:29;;;;;;;7.20;3.07;;;10.00;99.90;;;;;;10127074;23;20240;-78
2023/01/12 13:19:44;;;;;;;8.97;2.97;;;10.20;99.90;;;;;;10004338;29;20215;-79
2023/01/12 13:24:47;;;;;;;5.67;2.70;;;10.10;99.90;;;;;;9999322;29;20220;-78
2023/01/12 13:29:49;;;;;;;12.10;4.13;;;9.90;99.90;;;;;;9985668;29;20258;-79
2023/01/12 13:34:52;;;;;;;7.43;4.13;;;9.70;99.90;;;;;;10005228;29;20279;-79
2023/01/12 13:39:58;;;;;;;6.77;3.47;;;9.60;99.90;;;;;;10012876;29;20215;-80
2023/01/12 13:45:01;;;;;;;10.73;5.27;;;9.50;99.90;;;;;;9985524;29;20211;-79
2023/01/12 13:50:07;;;;;;;8.57;4.83;;;9.20;99.90;;;;;;9999031;29;20505;-78
2023/01/12 13:55:22;;;;;;;7.30;3.90;;;9.00;99.90;;;;;;10012093;29;20195;-77
2023/01/12 14:00:26;;;;;;;6.83;3.63;;;9.00;99.90;;;;;;10005716;29;20208;-79
2023/01/12 14:05:58;;;;;;;5.57;3.07;;;9.10;99.90;;;;;;9957647;29;20305;-78
2023/01/12 14:11:31;;;;;;;7.27;3.57;;;9.70;99.90;;;;;;9944617;29;20703;-78
2023/01/12 14:22:17;;;;;;;21.57;10.77;;;10.80;99.90;;;;;;10012467;29;20662;-78
2023/01/12 14:27:23;;;;;;;19.53;10.60;;;10.20;99.90;;;;;;10003617;29;20271;-79
2023/01/12 14:32:29;;;;;;;18.63;10.40;;;9.90;99.90;;;;;;10019306;29;20256;-79
2023/01/12 14:37:34;;;;;;;8.53;5.97;;;9.60;99.90;;;;;;10011442;29;20263;-78
2023/01/12 14:48:28;;;;;;;10.80;3.90;;;9.30;99.90;;;;;;9970655;29;20341;-79
2023/01/12 14:53:34;;;;;;;11.50;4.70;;;9.10;99.90;;;;;;9997343;29;20936;-79
2023/01/12 14:58:37;;;;;;;9.63;4.47;;;9.00;99.90;;;;;;9999191;29;20213;-80
2023/01/12 15:03:44;;;;;;;9.77;5.43;;;8.90;99.90;;;;;;10015970;29;20851;-78
2023/01/12 15:08:55;;;;;;;9.57;3.63;;;8.90;99.90;;;;;;9984638;29;20588;-78
2023/01/12 15:14:00;;;;;;;11.63;5.30;;;8.90;99.90;;;;;;10050372;29;20255;-79
2023/01/12 15:29:56;;;;;;;12.10;4.63;;;8.90;99.90;;;;;;10022417;29;20682;-78
2023/01/12 15:35:00;;;;;;;9.13;4.63;;;8.90;99.90;;;;;;10051401;29;20316;-79
2023/01/12 15:40:02;;;;;;;13.37;6.33;;;9.20;99.90;;;;;;10030150;29;20241;-80
2023/01/12 15:45:29;;;;;;;10.93;5.73;;;9.20;99.90;;;;;;10043070;29;20689;-79
2023/01/12 15:50:37;;;;;;;9.27;4.63;;;9.00;99.90;;;;;;9663751;29;10000256;-80
2023/01/12 15:55:40;;;;;;;9.43;4.87;;;8.90;99.90;;;;;;9959498;29;20246;-79
2023/01/12 16:00:43;;;;;;;9.13;4.67;;;9.00;99.90;;;;;;9990115;29;20302;-79
2023/01/12 16:05:46;;;;;;;10.43;5.13;;;9.00;99.90;;;;;;10013603;29;20695;-79
2023/01/12 16:16:15;;;;;;;3.47;2.50;;;9.00;99.90;;;;;;9986361;29;20673;-80
2023/01/12 16:21:21;;;;;;;10.63;5.33;;;9.70;99.90;;;;;;10016278;29;20691;-79
2023/01/12 16:26:25;;;;;;;21.57;6.90;;;9.70;99.90;;;;;;10024038;29;20286;-79
2023/01/12 16:31:28;;;;;;;10.17;4.97;;;9.50;99.90;;;;;;9984268;29;20263;-79
2023/01/12 16:36:32;;;;;;;8.77;5.47;;;9.50;99.90;;;;;;9997767;29;20237;-79
2023/01/12 16:41:34;;;;;;;11.20;5.93;;;9.60;99.90;;;;;;9994965;29;20214;-80
2023/01/12 16:46:37;;;;;;;7.57;4.00;;;9.30;99.90;;;;;;10004286;29;20303;-79
2023/01/12 16:51:40;;;;;;;7.00;4.70;;;9.40;99.90;;;;;;10010350;29;20773;-79
2023/01/12 16:56:42;;;;;;;10.97;6.43;;;9.80;99.90;;;;;;9997185;29;20246;-79
2023/01/12 17:01:45;;;;;;;14.83;7.17;;;9.80;99.90;;;;;;10018541;29;20306;-79
2023/01/12 17:06:48;;;;;;;6.27;3.90;;;9.80;99.90;;;;;;10015966;29;20246;-80
2023/01/12 17:11:51;;;;;;;4.83;3.37;;;9.70;99.90;;;;;;9993553;29;20307;-79
2023/01/12 17:16:57;;;;;;;13.30;6.10;;;10.30;99.90;;;;;;9982340;29;20318;-80
2023/01/12 17:22:00;;;;;;;6.67;3.60;;;10.70;99.90;;;;;;10024512;29;20210;-79
2023/01/12 17:27:03;;;;;;;15.00;8.47;;;10.40;99.90;;;;;;10013244;29;20627;-80
2023/01/12 17:32:06;;;;;;;13.10;6.60;;;10.10;99.90;;;;;;10045070;29;20257;-80
2023/01/12 17:37:10;;;;;;;11.37;5.30;;;9.90;99.90;;;;;;10040400;29;20236;-80
2023/01/12 17:47:36;;;;;;;11.60;6.13;;;10.00;99.90;;;;;;9979039;29;20253;-80
2023/01/12 17:52:38;;;;;;;9.00;5.43;;;10.10;99.90;;;;;;10007051;29;20258;-80
2023/01/12 17:57:41;;;;;;;10.97;5.80;;;9.90;99.90;;;;;;10008165;29;20651;-80
2023/01/12 18:02:43;;;;;;;8.00;4.70;;;9.50;99.90;;;;;;9981462;29;20310;-80
2023/01/12 18:07:46;;;;;;;10.73;5.37;;;9.40;99.90;;;;;;9979138;29;20299;-80
2023/01/12 18:12:49;;;;;;;8.90;4.40;;;9.80;99.90;;;;;;9976697;29;20370;-79
2023/01/12 18:17:51;;;;;;;13.13;7.03;;;10.50;99.90;;;;;;9977624;29;20274;-79
2023/01/12 18:22:54;;;;;;;12.87;5.90;;;10.40;99.90;;;;;;10010820;29;20274;-80
2023/01/12 18:27:57;;;;;;;10.40;6.03;;;10.20;99.90;;;;;;10036113;29;20298;-80
2023/01/12 18:33:00;;;;;;;12.20;6.67;;;9.70;99.90;;;;;;10033081;29;20262;-80
2023/01/12 18:38:03;;;;;;;12.67;6.07;;;9.60;99.90;;;;;;9979593;29;20240;-80
2023/01/12 18:43:05;;;;;;;11.57;6.57;;;9.40;99.90;;;;;;9978814;29;20297;-80
2023/01/12 18:48:22;;;;;;;15.47;7.13;;;9.30;99.90;;;;;;10006955;29;20648;-80
2023/01/12 18:53:30;;;;;;;16.37;7.83;;;9.20;99.90;;;;;;10017119;29;20331;-80
2023/01/12 18:58:35;;;;;;;15.13;7.73;;;9.00;99.90;;;;;;9995961;29;20322;-81
2023/01/12 19:03:37;;;;;;;13.23;6.80;;;9.50;99.90;;;;;;9959060;29;20257;-81
2023/01/12 19:19:26;;;;;;;14.83;5.80;;;9.10;99.90;;;;;;9976529;29;20293;-88
2023/01/12 19:29:50;;;;;;;12.77;5.80;;;9.20;99.90;;;;;;9991800;29;20305;-87
2023/01/12 19:34:53;;;;;;;8.67;5.93;;;9.30;99.90;;;;;;9965134;29;20843;-88
2023/01/12 19:40:16;;;;;;;10.27;5.60;;;9.50;99.90;;;;;;9999752;29;20250;-88
2023/01/12 19:45:19;;;;;;;13.43;6.07;;;9.40;99.90;;;;;;9993665;29;20314;-88
2023/01/12 19:50:22;;;;;;;10.33;5.90;;;9.80;99.90;;;;;;10003760;29;20306;-88
2023/01/12 19:55:25;;;;;;;13.10;5.73;;;10.30;99.90;;;;;;9997035;29;20307;-88
2023/01/12 20:00:28;;;;;;;9.90;4.93;;;10.20;99.90;;;;;;10006149;29;20249;-88
2023/01/12 20:05:31;;;;;;;12.60;5.80;;;10.00;99.90;;;;;;10005318;29;20321;-87
2023/01/12 20:10:36;;;;;;;10.83;6.10;;;9.80;99.90;;;;;;9982868;29;20237;-86
2023/01/12 20:15:41;;;;;;;12.07;6.87;;;9.50;99.90;;;;;;9996351;29;20325;-87
2023/01/12 20:20:44;;;;;;;10.23;6.17;;;8.80;99.90;;;;;;9971913;29;20250;-87
2023/01/12 20:25:47;;;;;;;12.43;6.37;;;8.40;99.90;;;;;;9981625;29;20239;-88
2023/01/12 20:30:49;;;;;;;7.30;5.30;;;8.40;99.90;;;;;;9967501;29;20246;-88
2023/01/12 20:35:52;;;;;;;10.93;6.53;;;;;;;;;;10014351;29;20318;-88
2023/01/12 20:40:55;;;;;;;16.30;8.70;;;8.10;99.90;;;;;;10002223;29;20238;-88
2023/01/12 20:45:58;;;;;;;13.83;7.27;;;8.10;99.90;;;;;;9997084;29;20246;-88
2023/01/12 20:51:04;;;;;;;12.80;7.23;;;8.10;99.90;;;;;;10001456;29;20322;-87
2023/01/12 20:56:08;;;;;;;9.30;5.47;;;8.10;99.90;;;;;;9995736;29;20246;-87
2023/01/12 21:01:12;;;;;;;8.70;5.90;;;8.10;99.90;;;;;;9995861;29;20298;-87
2023/01/12 21:06:16;;;;;;;8.03;5.67;;;8.10;99.90;;;;;;9992397;29;20730;-88
2023/01/12 21:11:20;;;;;;;8.67;4.70;;;8.10;99.90;;;;;;9985498;29;20267;-88
2023/01/12 21:16:22;;;;;;;11.93;5.80;;;8.10;99.90;;;;;;9996852;29;20266;-88
2023/01/12 21:21:25;;;;;;;6.57;4.57;;;8.10;99.90;;;;;;9982385;29;20590;-87
2023/01/12 21:26:28;;;;;;;8.50;4.67;;;8.10;99.90;;;;;;9978457;29;20833;-85
2023/01/12 21:31:31;;;;;;;8.57;3.83;;;8.10;99.90;;;;;;9962966;29;20327;-86
2023/01/12 21:36:34;;;;;;;5.77;3.83;;;8.10;99.90;;;;;;9984013;29;20644;-87
2023/01/12 21:46:58;;;;;;;6.57;3.37;;;8.10;99.90;;;;;;9988529;29;20244;-86
2023/01/12 21:52:01;;;;;;;7.60;4.53;;;8.20;99.90;;;;;;10006348;29;20275;-87
2023/01/12 21:57:03;;;;;;;8.40;3.13;;;8.20;99.90;;;;;;9985875;29;20280;-87
2023/01/12 22:02:09;;;;;;;5.07;3.37;;;8.20;99.90;;;;;;9969888;29;20273;-88
2023/01/12 22:07:12;;;;;;;6.00;4.10;;;8.20;99.90;;;;;;9987531;29;20816;-87
2023/01/12 22:12:14;;;;;;;5.07;3.43;;;8.20;99.90;;;;;;9984288;29;20236;-88
2023/01/12 22:17:17;;;;;;;5.47;3.50;;;8.30;99.90;;;;;;9994935;29;20340;-86
2023/01/12 22:22:19;;;;;;;5.27;2.80;;;8.30;99.90;;;;;;9990522;29;20239;-87
2023/01/12 22:27:22;;;;;;;6.30;4.10;;;8.30;99.90;;;;;;9971092;29;20240;-86
2023/01/12 22:32:28;;;;;;;7.00;3.97;;;8.30;99.90;;;;;;9960920;29;20269;-87
2023/01/12 22:37:34;;;;;;;6.17;3.73;;;8.30;99.90;;;;;;10008452;29;20707;-87
2023/01/12 22:47:58;;;;;;;4.43;3.70;;;8.20;99.90;;;;;;9983965;29;20318;-87
2023/01/12 22:53:01;;;;;;;5.57;3.97;;;8.10;99.90;;;;;;10020505;29;20270;-87
2023/01/12 22:58:04;;;;;;;6.50;4.00;;;8.10;99.90;;;;;;9961427;29;20277;-87
2023/01/12 23:03:08;;;;;;;4.77;3.40;;;8.10;99.90;;;;;;9978236;29;20252;-87
2023/01/12 23:08:12;;;;;;;4.23;3.30;;;8.00;99.90;;;;;;9993589;29;20252;-86
2023/01/12 23:13:16;;;;;;;5.77;3.67;;;8.00;99.90;;;;;;10008497;29;20781;-87
2023/01/12 23:18:21;;;;;;;4.87;3.80;;;8.00;99.90;;;;;;10037397;29;20317;-87
2023/01/12 23:23:23;;;;;;;5.90;3.50;;;8.00;99.90;;;;;;10021213;29;20274;-86
2023/01/12 23:28:26;;;;;;;8.47;4.63;;;7.90;99.90;;;;;;9982456;29;20237;-87
2023/01/12 23:33:29;;;;;;;5.23;3.77;;;8.00;99.90;;;;;;9972658;29;20258;-87
2023/01/12 23:38:32;;;;;;;5.23;3.73;;;8.00;99.90;;;;;;9986892;29;20765;-87
2023/01/12 23:43:34;;;;;;;5.93;3.83;;;8.00;99.90;;;;;;9996186;29;20754;-87
2023/01/12 23:48:38;;;;;;;7.00;4.23;;;7.90;99.90;;;;;;9974418;29;20255;-87
2023/01/12 23:53:41;;;;;;;4.00;3.43;;;7.90;99.90;;;;;;10001159;29;20264;-87
2023/01/12 23:58:45;;;;;;;4.90;3.10;;;7.90;99.90;;;;;;9975162;29;20243;-86
